Time;durP1;ratioP1;P1;durP2;ratioP2;P2;SDS_P1;SDS_P2;PMS_P1;PMS_P2;Temp;Humidity;BMP_temperature;BMP_pressure;BME280_temperature;BME280_humidity;BME280_pressure;Samples;Min_cycle;Max_cycle;Signal;HPM_P1;HPM_P2
2022/04/13 00:01:54;;;;;;;10.55;3.20;;;18.10;93.70;;;;;;5048929;28;20204;-36
2022/04/13 00:04:26;;;;;;;8.55;3.25;;;18.10;93.70;;;;;;5067912;28;20214;-36
2022/04/13 00:06:54;;;;;;;5.85;2.88;;;18.10;93.80;;;;;;5069393;28;20669;-35
2022/04/13 00:09:23;;;;;;;4.95;2.72;;;18.10;93.80;;;;;;5069465;28;20232;-36
2022/04/13 00:11:52;;;;;;;8.95;2.95;;;18.10;93.80;;;;;;5069573;28;20286;-36
2022/04/13 00:14:22;;;;;;;6.88;3.35;;;18.10;93.80;;;;;;5069771;28;20223;-36
2022/04/13 00:16:54;;;;;;;7.03;3.28;;;18.10;93.80;;;;;;5067900;28;20585;-36
2022/04/13 00:19:25;;;;;;;6.93;3.15;;;18.10;93.90;;;;;;5068718;28;20223;-37
2022/04/13 00:21:53;;;;;;;10.43;3.55;;;18.10;93.90;;;;;;5069218;28;20230;-36
2022/04/13 00:24:20;;;;;;;7.15;3.40;;;18.10;93.90;;;;;;5069291;28;20206;-36
2022/04/13 00:26:48;;;;;;;8.48;3.92;;;18.10;94.00;;;;;;5068987;28;20211;-36
2022/04/13 00:29:15;;;;;;;6.72;3.72;;;18.10;94.00;;;;;;5064185;28;20239;-36
2022/04/13 00:31:42;;;;;;;7.13;3.45;;;18.10;94.00;;;;;;5066414;28;20200;-46
2022/04/13 00:34:12;;;;;;;7.38;3.47;;;18.10;94.10;;;;;;5051687;28;20652;-47
2022/04/13 00:36:44;;;;;;;7.20;3.70;;;18.10;94.10;;;;;;5061983;28;20191;-48
2022/04/13 00:39:14;;;;;;;6.88;3.72;;;18.10;94.10;;;;;;5067582;28;20226;-48
2022/04/13 00:41:43;;;;;;;7.65;3.65;;;18.10;94.20;;;;;;5068475;28;20674;-47
2022/04/13 00:44:14;;;;;;;7.82;3.42;;;18.10;94.20;;;;;;5068501;28;20215;-46
2022/04/13 00:46:43;;;;;;;6.53;3.55;;;18.20;94.30;;;;;;5067584;28;20227;-47
2022/04/13 00:49:14;;;;;;;8.70;4.40;;;18.20;94.30;;;;;;5068130;28;20207;-46
2022/04/13 00:51:41;;;;;;;9.63;3.95;;;18.20;94.30;;;;;;5048960;28;20214;-47
2022/04/13 00:54:09;;;;;;;6.90;3.55;;;18.20;94.40;;;;;;5056858;28;20360;-48
2022/04/13 00:56:43;;;;;;;7.97;3.90;;;18.10;94.40;;;;;;5067233;28;20249;-48
2022/04/13 00:59:13;;;;;;;8.63;4.38;;;18.10;94.40;;;;;;5059048;28;20599;-46
2022/04/13 01:01:49;;;;;;;9.02;3.50;;;18.10;94.50;;;;;;5050815;28;20311;-51
2022/04/13 01:04:19;;;;;;;7.88;3.97;;;18.10;94.50;;;;;;5064916;28;20616;-45
2022/04/13 01:06:52;;;;;;;8.27;4.22;;;18.10;94.50;;;;;;5067270;28;20281;-48
2022/04/13 01:09:26;;;;;;;6.55;4.00;;;18.00;94.60;;;;;;5068000;28;20226;-45
2022/04/13 01:11:55;;;;;;;7.82;4.07;;;18.00;94.60;;;;;;5066911;28;20249;-46
2022/04/13 01:14:25;;;;;;;9.95;3.97;;;17.90;94.60;;;;;;5068144;28;20195;-46
2022/04/13 01:16:52;;;;;;;10.43;4.55;;;17.90;94.60;;;;;;5067710;28;20249;-45
2022/04/13 01:19:22;;;;;;;9.18;4.53;;;17.90;94.70;;;;;;5069566;28;20644;-46
2022/04/13 01:21:58;;;;;;;9.25;4.50;;;17.80;94.70;;;;;;5073807;28;20200;-46
2022/04/13 01:24:26;;;;;;;8.55;4.05;;;17.80;94.70;;;;;;5065428;28;20290;-46
2022/04/13 01:26:53;;;;;;;9.48;4.35;;;17.80;94.80;;;;;;5066387;28;20205;-44
2022/04/13 01:29:23;;;;;;;8.95;4.05;;;17.70;94.70;;;;;;5064160;28;20219;-46
2022/04/13 01:31:53;;;;;;;8.93;4.72;;;17.70;94.80;;;;;;5064313;28;20753;-45
2022/04/13 01:34:21;;;;;;;7.97;4.65;;;17.60;94.80;;;;;;5063720;28;20693;-44
2022/04/13 01:36:53;;;;;;;9.27;4.72;;;17.60;94.80;;;;;;5066626;28;20290;-46
2022/04/13 01:39:20;;;;;;;9.82;4.72;;;17.50;94.80;;;;;;5049769;28;20223;-45
2022/04/13 01:41:48;;;;;;;10.00;4.60;;;17.50;94.90;;;;;;5067044;28;20206;-46
2022/04/13 01:44:20;;;;;;;8.10;4.00;;;17.50;94.90;;;;;;5067052;28;20665;-46
2022/04/13 01:46:52;;;;;;;11.10;4.85;;;17.40;94.90;;;;;;5068205;28;20389;-46
2022/04/13 01:49:19;;;;;;;8.88;4.30;;;17.40;94.90;;;;;;5066899;28;20295;-47
2022/04/13 01:51:49;;;;;;;8.50;4.82;;;17.30;94.80;;;;;;5067986;28;20231;-37
2022/04/13 01:54:19;;;;;;;11.13;4.90;;;17.30;94.90;;;;;;5067440;28;20639;-36
2022/04/13 01:56:46;;;;;;;10.20;4.78;;;17.30;95.00;;;;;;5067534;28;20209;-36
2022/04/13 01:59:16;;;;;;;7.93;4.22;;;17.20;94.90;;;;;;5051274;28;20553;-36
2022/04/13 02:01:44;;;;;;;8.95;4.05;;;17.20;94.90;;;;;;5051688;28;20298;-36
2022/04/13 02:04:22;;;;;;;8.55;4.82;;;17.20;95.00;;;;;;5066960;28;20602;-36
2022/04/13 02:06:49;;;;;;;8.85;4.20;;;17.20;95.20;;;;;;5067852;28;20856;-36
2022/04/13 02:09:22;;;;;;;7.22;4.38;;;17.10;94.90;;;;;;5053842;28;20286;-36
2022/04/13 02:11:51;;;;;;;8.30;4.57;;;17.10;95.00;;;;;;5068349;28;21029;-36
2022/04/13 02:14:23;;;;;;;8.00;4.18;;;17.10;95.00;;;;;;5066945;28;20203;-36
2022/04/13 02:16:55;;;;;;;8.60;4.35;;;17.10;95.10;;;;;;5047224;28;20195;-35
2022/04/13 02:19:24;;;;;;;9.70;5.03;;;17.00;95.00;;;;;;5053698;28;20220;-36
2022/04/13 02:21:56;;;;;;;7.32;4.55;;;17.00;95.00;;;;;;5087470;28;20252;-36
2022/04/13 02:24:26;;;;;;;8.43;4.07;;;17.00;95.10;;;;;;5087234;28;20312;-36
2022/04/13 02:26:53;;;;;;;11.07;5.10;;;17.00;95.00;;;;;;5075665;28;20246;-36
2022/04/13 02:29:20;;;;;;;9.40;4.90;;;17.00;95.00;;;;;;5049017;28;20236;-35
2022/04/13 02:31:50;;;;;;;9.25;4.32;;;17.00;95.00;;;;;;5051166;28;20639;-34
2022/04/13 02:34:22;;;;;;;10.68;4.45;;;16.90;95.00;;;;;;5066999;28;20200;-35
2022/04/13 02:36:49;;;;;;;9.40;5.20;;;17.00;95.20;;;;;;5067061;28;20273;-35
2022/04/13 02:39:19;;;;;;;9.43;4.57;;;16.90;95.10;;;;;;5066916;28;20195;-35
2022/04/13 02:41:46;;;;;;;10.40;4.35;;;16.90;95.10;;;;;;5068136;28;20292;-35
2022/04/13 02:44:13;;;;;;;11.32;4.93;;;16.90;95.10;;;;;;5071353;28;20448;-35
2022/04/13 02:46:41;;;;;;;6.70;4.32;;;16.90;95.20;;;;;;5070349;28;20284;-36
2022/04/13 02:49:09;;;;;;;9.65;4.60;;;16.90;95.20;;;;;;5062890;28;20203;-35
2022/04/13 02:51:36;;;;;;;10.50;4.75;;;16.80;95.20;;;;;;5033321;28;20936;-38
2022/04/13 02:54:09;;;;;;;8.48;4.47;;;16.80;95.30;;;;;;5066940;28;20239;-35
2022/04/13 02:56:41;;;;;;;11.18;4.90;;;16.80;95.30;;;;;;5069737;28;20611;-35
2022/04/13 02:59:10;;;;;;;10.20;4.78;;;16.80;95.40;;;;;;5070561;28;20204;-34
2022/04/13 03:01:37;;;;;;;11.45;4.75;;;16.80;95.40;;;;;;5065496;28;20212;-36
2022/04/13 03:04:07;;;;;;;8.60;4.32;;;16.80;95.50;;;;;;5050247;28;20613;-36
2022/04/13 03:06:37;;;;;;;10.57;4.63;;;16.80;95.60;;;;;;5061537;28;20603;-36
2022/04/13 03:09:07;;;;;;;8.75;4.68;;;16.80;95.60;;;;;;5070882;28;20207;-35
2022/04/13 03:11:40;;;;;;;9.90;4.68;;;16.80;95.60;;;;;;5070051;28;20751;-36
2022/04/13 03:14:07;;;;;;;10.32;4.57;;;16.80;95.70;;;;;;5069946;28;20620;-36
2022/04/13 03:16:40;;;;;;;9.43;4.68;;;16.80;95.80;;;;;;5061004;28;20254;-36
2022/04/13 03:19:07;;;;;;;8.40;5.15;;;16.80;95.90;;;;;;5065740;28;20211;-36
2022/04/13 03:21:34;;;;;;;8.30;4.63;;;16.80;95.80;;;;;;5060552;28;20203;-34
2022/04/13 03:24:04;;;;;;;11.55;5.82;;;16.80;95.90;;;;;;5069858;28;20273;-35
2022/04/13 03:26:31;;;;;;;11.30;5.28;;;16.70;95.90;;;;;;5069799;28;20290;-35
2022/04/13 03:28:59;;;;;;;9.82;4.30;;;16.70;95.80;;;;;;5070332;28;20212;-35
2022/04/13 03:31:26;;;;;;;11.13;4.90;;;16.70;95.80;;;;;;5067954;28;20238;-36
2022/04/13 03:33:56;;;;;;;8.95;5.15;;;16.70;95.90;;;;;;5069940;28;20728;-43
2022/04/13 03:36:23;;;;;;;12.30;6.10;;;16.60;95.80;;;;;;5068561;28;20281;-45
2022/04/13 03:38:50;;;;;;;11.57;4.72;;;16.60;95.90;;;;;;5069979;28;20219;-43
2022/04/13 03:41:18;;;;;;;8.57;5.35;;;16.60;95.90;;;;;;5053002;28;20219;-43
2022/04/13 03:43:45;;;;;;;9.63;5.05;;;16.60;95.90;;;;;;5054033;28;20303;-44
2022/04/13 03:46:14;;;;;;;8.73;4.75;;;16.60;95.80;;;;;;5069508;28;20237;-45
2022/04/13 03:48:42;;;;;;;10.63;4.63;;;16.60;95.90;;;;;;5069050;28;20207;-44
2022/04/13 03:51:10;;;;;;;9.90;4.88;;;16.50;95.90;;;;;;5069407;28;20220;-45
2022/04/13 03:53:39;;;;;;;9.90;5.45;;;16.50;95.80;;;;;;5068753;28;20702;-44
2022/04/13 03:56:08;;;;;;;9.40;4.50;;;16.40;95.80;;;;;;5069621;28;20231;-47
2022/04/13 03:58:40;;;;;;;8.43;5.00;;;16.50;96.00;;;;;;5068982;28;20302;-44
2022/04/13 04:01:08;;;;;;;10.45;5.10;;;16.40;95.90;;;;;;5068266;28;20669;-43
2022/04/13 04:03:36;;;;;;;7.82;4.90;;;16.40;96.00;;;;;;5049020;28;20212;-46
2022/04/13 04:06:04;;;;;;;7.38;4.80;;;16.40;96.00;;;;;;5049373;28;20291;-44
2022/04/13 04:08:34;;;;;;;7.82;4.60;;;16.30;96.00;;;;;;5062291;28;20203;-44
2022/04/13 04:11:02;;;;;;;11.20;4.88;;;16.30;96.00;;;;;;5069559;28;20306;-45
2022/04/13 04:13:31;;;;;;;9.00;4.50;;;16.30;96.10;;;;;;5068776;28;20279;-46
2022/04/13 04:16:04;;;;;;;7.38;4.90;;;16.30;96.10;;;;;;5065472;28;20210;-45
2022/04/13 04:18:34;;;;;;;7.38;4.78;;;16.20;96.10;;;;;;5068611;28;20199;-45
2022/04/13 04:21:01;;;;;;;11.55;4.90;;;16.20;96.10;;;;;;5080006;28;20676;-44
2022/04/13 04:23:28;;;;;;;11.48;4.78;;;16.20;96.10;;;;;;5061339;28;20246;-44
2022/04/13 04:25:55;;;;;;;10.48;4.82;;;16.20;96.10;;;;;;5049107;28;20200;-45
2022/04/13 04:28:25;;;;;;;10.02;5.30;;;16.20;96.20;;;;;;5049141;28;20254;-44
2022/04/13 04:30:57;;;;;;;9.52;5.10;;;16.20;96.30;;;;;;5053404;28;20234;-44
2022/04/13 04:33:27;;;;;;;9.70;4.93;;;16.10;96.20;;;;;;5068767;28;20195;-45
2022/04/13 04:35:56;;;;;;;8.15;5.00;;;16.10;96.20;;;;;;5068143;28;20208;-45
2022/04/13 04:38:32;;;;;;;8.73;4.75;;;16.10;96.20;;;;;;5067753;28;20303;-45
2022/04/13 04:41:05;;;;;;;9.30;5.25;;;16.10;96.30;;;;;;5068304;28;20589;-44
2022/04/13 04:43:33;;;;;;;8.32;4.70;;;16.10;96.30;;;;;;5068724;28;20199;-44
2022/04/13 04:46:00;;;;;;;7.10;4.68;;;16.10;96.30;;;;;;5068280;28;20234;-43
2022/04/13 04:48:27;;;;;;;10.52;5.25;;;16.10;96.30;;;;;;5061566;28;20216;-43
2022/04/13 04:50:55;;;;;;;9.45;5.07;;;16.10;96.40;;;;;;5068218;28;20215;-44
2022/04/13 04:53:26;;;;;;;11.15;4.75;;;16.10;96.50;;;;;;5068671;28;20741;-44
2022/04/13 04:55:53;;;;;;;10.23;5.05;;;16.10;96.80;;;;;;5068189;28;21060;-44
2022/04/13 04:58:20;;;;;;;7.75;4.80;;;16.10;96.50;;;;;;5067109;28;20226;-44
2022/04/13 05:00:49;;;;;;;8.15;5.07;;;16.10;96.50;;;;;;5065901;28;20223;-45
2022/04/13 05:03:19;;;;;;;9.55;5.18;;;16.10;96.40;;;;;;5067970;28;20208;-44
2022/04/13 05:05:47;;;;;;;8.30;4.55;;;16.10;96.50;;;;;;5066724;28;20211;-44
2022/04/13 05:08:14;;;;;;;8.80;5.18;;;16.10;96.40;;;;;;5068060;28;20208;-45
2022/04/13 05:10:50;;;;;;;9.95;5.07;;;16.10;96.50;;;;;;5067732;28;20285;-44
2022/04/13 05:13:23;;;;;;;7.45;4.53;;;16.10;96.50;;;;;;5068082;28;20696;-45
2022/04/13 05:15:53;;;;;;;9.77;5.20;;;16.10;96.50;;;;;;5067378;28;20261;-44
2022/04/13 05:18:21;;;;;;;10.75;5.30;;;16.10;96.50;;;;;;5067959;28;20196;-43
2022/04/13 05:20:48;;;;;;;17.63;6.97;;;16.10;96.60;;;;;;5076748;28;20207;-45
2022/04/13 05:23:18;;;;;;;12.50;5.20;;;16.10;96.60;;;;;;5066966;28;20234;-44
2022/04/13 05:25:48;;;;;;;18.63;6.90;;;16.10;96.70;;;;;;5067946;28;20496;-44
2022/04/13 05:28:16;;;;;;;15.32;5.90;;;16.10;96.80;;;;;;5063358;28;20207;-46
2022/04/13 05:30:47;;;;;;;10.00;4.97;;;16.10;96.80;;;;;;5054054;28;20638;-46
2022/04/13 05:33:15;;;;;;;12.45;4.95;;;16.10;96.80;;;;;;5067107;28;20666;-46
2022/04/13 05:35:45;;;;;;;9.30;5.85;;;16.10;96.80;;;;;;5066956;28;20272;-44
2022/04/13 05:38:12;;;;;;;10.48;5.03;;;16.10;96.80;;;;;;5067542;28;20352;-44
2022/04/13 05:40:42;;;;;;;10.73;4.97;;;16.10;96.90;;;;;;5064200;28;20196;-44
2022/04/13 05:43:09;;;;;;;10.88;5.68;;;16.10;96.90;;;;;;5062543;28;20212;-44
2022/04/13 05:45:36;;;;;;;16.50;5.25;;;16.10;97.00;;;;;;5065677;28;20195;-44
2022/04/13 05:48:05;;;;;;;7.50;5.03;;;16.10;97.00;;;;;;5066643;28;20277;-45
2022/04/13 05:50:37;;;;;;;9.07;5.65;;;16.10;97.00;;;;;;5054783;28;20206;-43
2022/04/13 05:53:09;;;;;;;8.88;5.32;;;16.10;97.40;;;;;;5060104;28;20207;-45
2022/04/13 05:55:36;;;;;;;13.32;5.65;;;16.10;97.10;;;;;;5060321;28;20228;-44
2022/04/13 05:58:03;;;;;;;13.45;5.88;;;16.10;97.10;;;;;;5058719;28;20198;-46
2022/04/13 06:00:30;;;;;;;10.57;6.13;;;16.20;97.20;;;;;;5062252;28;20289;-44
2022/04/13 06:03:00;;;;;;;14.95;6.75;;;16.20;97.20;;;;;;5055419;28;20277;-45
2022/04/13 06:05:30;;;;;;;7.32;5.43;;;16.20;97.30;;;;;;5061094;28;20195;-46
2022/04/13 06:07:58;;;;;;;10.45;6.07;;;16.20;97.20;;;;;;5059298;28;20239;-46
2022/04/13 06:10:25;;;;;;;10.18;5.30;;;16.20;97.30;;;;;;5060867;28;20697;-45
2022/04/13 06:12:52;;;;;;;11.20;5.63;;;16.20;97.30;;;;;;5057577;28;20678;-35
2022/04/13 06:15:22;;;;;;;11.20;5.60;;;16.30;97.30;;;;;;5055612;28;20322;-36
2022/04/13 06:17:49;;;;;;;9.90;5.55;;;16.30;97.40;;;;;;5057664;28;20279;-36
2022/04/13 06:20:17;;;;;;;8.95;5.35;;;16.30;97.40;;;;;;5063029;28;20196;-35
2022/04/13 06:22:44;;;;;;;12.45;5.93;;;16.40;97.40;;;;;;5060909;28;20207;-35
2022/04/13 06:25:12;;;;;;;10.00;5.78;;;16.40;97.40;;;;;;5067028;28;20677;-36
2022/04/13 06:27:44;;;;;;;10.88;5.68;;;16.40;97.50;;;;;;5058121;28;20239;-35
2022/04/13 06:30:13;;;;;;;13.73;5.78;;;16.40;97.40;;;;;;5063139;28;20203;-36
2022/04/13 06:32:45;;;;;;;12.15;6.00;;;16.50;97.50;;;;;;5067283;28;20416;-35
2022/04/13 06:35:18;;;;;;;18.90;7.45;;;16.50;97.50;;;;;;5063699;28;20589;-36
2022/04/13 06:37:49;;;;;;;14.80;6.20;;;16.50;97.70;;;;;;5065398;28;20207;-36
2022/04/13 06:40:16;;;;;;;12.48;5.47;;;16.50;97.60;;;;;;5060942;28;20192;-35
2022/04/13 06:42:46;;;;;;;11.38;5.85;;;16.50;97.60;;;;;;5054861;28;20219;-36
2022/04/13 06:45:16;;;;;;;8.40;5.38;;;16.60;97.70;;;;;;5066910;28;20341;-35
2022/04/13 06:47:48;;;;;;;10.95;6.03;;;16.60;97.70;;;;;;5066999;28;20292;-45
2022/04/13 06:50:15;;;;;;;12.32;5.20;;;16.60;97.70;;;;;;5063571;28;20204;-44
2022/04/13 06:52:45;;;;;;;15.23;6.35;;;16.70;97.70;;;;;;5064335;28;20246;-47
2022/04/13 06:55:15;;;;;;;13.20;6.40;;;16.70;97.80;;;;;;5070383;28;20239;-46
2022/04/13 06:57:46;;;;;;;12.85;6.55;;;16.70;97.80;;;;;;5073051;28;20195;-46
2022/04/13 07:00:14;;;;;;;10.73;6.40;;;16.80;97.80;;;;;;5056309;28;20240;-46
2022/04/13 07:02:41;;;;;;;12.45;6.07;;;16.80;97.80;;;;;;5061730;28;20203;-47
2022/04/13 07:05:29;;;;;;;12.70;6.47;;;16.80;97.90;;;;;;5063965;28;20751;-46
2022/04/13 07:08:03;;;;;;;13.13;7.07;;;16.80;98.20;;;;;;5071383;28;20303;-45
2022/04/13 07:10:34;;;;;;;16.83;7.05;;;16.80;98.00;;;;;;5072399;28;20211;-45
2022/04/13 07:13:10;;;;;;;11.45;7.25;;;16.90;98.00;;;;;;5064206;28;20320;-46
2022/04/13 07:15:41;;;;;;;11.20;6.65;;;16.90;98.00;;;;;;5071845;28;20334;-46
2022/04/13 07:18:09;;;;;;;11.85;6.78;;;16.90;98.10;;;;;;5072346;28;20230;-45
2022/04/13 07:20:36;;;;;;;12.95;7.28;;;16.90;98.10;;;;;;5072070;28;20612;-46
2022/04/13 07:23:03;;;;;;;15.85;7.20;;;17.00;98.20;;;;;;5072647;28;20199;-46
2022/04/13 07:25:32;;;;;;;13.15;7.25;;;17.00;98.20;;;;;;5061773;28;20234;-36
2022/04/13 07:28:02;;;;;;;13.60;7.40;;;17.10;98.20;;;;;;5066834;28;20211;-36
2022/04/13 07:30:31;;;;;;;13.40;7.15;;;17.10;98.30;;;;;;5060831;28;20261;-35
2022/04/13 07:33:02;;;;;;;13.02;7.65;;;17.20;98.40;;;;;;5063276;28;20296;-36
2022/04/13 07:35:31;;;;;;;12.52;6.30;;;17.20;98.40;;;;;;5058680;28;20583;-36
2022/04/13 07:38:01;;;;;;;13.60;7.15;;;17.30;98.40;;;;;;5053197;28;20309;-36
2022/04/13 07:40:30;;;;;;;10.52;6.75;;;17.30;98.50;;;;;;5053484;28;20196;-36
2022/04/13 07:42:58;;;;;;;11.05;7.28;;;17.40;98.50;;;;;;5055804;28;20211;-36
2022/04/13 07:45:28;;;;;;;13.05;7.60;;;17.40;98.60;;;;;;5051497;28;20215;-36
2022/04/13 07:47:55;;;;;;;13.90;7.38;;;17.50;98.60;;;;;;5059825;28;20199;-36
2022/04/13 07:50:23;;;;;;;15.85;7.50;;;17.50;98.60;;;;;;5067151;28;20214;-35
2022/04/13 07:52:50;;;;;;;13.50;7.30;;;17.60;98.70;;;;;;5067636;28;20211;-36
2022/04/13 07:55:17;;;;;;;13.95;7.32;;;17.60;98.70;;;;;;5057489;28;20232;-35
2022/04/13 07:57:44;;;;;;;11.60;7.53;;;17.60;98.70;;;;;;5048208;28;20198;-35
2022/04/13 08:00:12;;;;;;;15.65;7.78;;;17.60;98.80;;;;;;5056660;28;20335;-35
2022/04/13 08:02:41;;;;;;;12.90;7.75;;;17.70;98.80;;;;;;5049020;28;20643;-42
2022/04/13 08:05:13;;;;;;;13.18;6.85;;;17.70;98.80;;;;;;5065968;28;20203;-36
2022/04/13 08:07:43;;;;;;;17.67;7.43;;;17.70;98.90;;;;;;5064404;28;20759;-36
2022/04/13 08:10:11;;;;;;;12.27;6.97;;;17.80;98.90;;;;;;5062416;28;20689;-36
2022/04/13 08:12:42;;;;;;;15.25;7.20;;;17.80;98.90;;;;;;5063824;28;20350;-36
2022/04/13 08:15:13;;;;;;;11.75;6.53;;;17.90;99.00;;;;;;5050499;28;20242;-36
2022/04/13 08:17:43;;;;;;;11.95;6.90;;;17.90;99.00;;;;;;5055039;28;20248;-36
2022/04/13 08:20:13;;;;;;;12.02;7.13;;;18.00;99.10;;;;;;5059204;28;20286;-36
2022/04/13 08:22:45;;;;;;;13.10;7.45;;;18.00;99.10;;;;;;5056855;28;20304;-36
2022/04/13 08:25:13;;;;;;;15.00;6.68;;;18.10;99.20;;;;;;5068724;28;20202;-36
2022/04/13 08:27:43;;;;;;;13.10;7.45;;;18.10;99.10;;;;;;5061680;28;20219;-38
2022/04/13 08:30:14;;;;;;;14.05;6.65;;;18.20;99.20;;;;;;5049106;28;20299;-37
2022/04/13 08:32:44;;;;;;;12.40;6.25;;;18.30;99.30;;;;;;5057742;28;20274;-37
2022/04/13 08:35:11;;;;;;;11.02;6.07;;;18.40;99.40;;;;;;5066835;28;20210;-37
2022/04/13 08:37:39;;;;;;;10.60;5.80;;;18.40;99.30;;;;;;5054298;28;20294;-37
2022/04/13 08:40:09;;;;;;;12.07;5.68;;;18.50;99.30;;;;;;5055373;28;20732;-37
2022/04/13 08:42:45;;;;;;;14.25;7.07;;;18.50;99.30;;;;;;5050842;28;20192;-37
2022/04/13 08:45:23;;;;;;;10.60;6.50;;;18.50;99.80;;;;;;5052007;28;20254;-36
2022/04/13 08:48:01;;;;;;;10.77;6.10;;;18.50;99.60;;;;;;5058105;28;20222;-36
2022/04/13 08:50:35;;;;;;;9.35;6.20;;;18.60;99.70;;;;;;5066423;28;20686;-37
2022/04/13 08:53:12;;;;;;;9.88;5.78;;;18.50;99.50;;;;;;5066503;28;20312;-37
2022/04/13 08:55:49;;;;;;;11.35;6.80;;;18.60;99.70;;;;;;5057188;28;20724;-38
2022/04/13 08:58:24;;;;;;;9.30;6.38;;;18.60;99.70;;;;;;5048500;28;20196;-38
2022/04/13 09:00:58;;;;;;;13.02;6.70;;;18.60;99.80;;;;;;5057418;28;20223;-37
2022/04/13 09:03:49;;;;;;;12.02;6.40;;;18.50;99.90;;;;;;5057275;28;20283;-38
2022/04/13 09:06:25;;;;;;;9.88;6.35;;;18.60;99.90;;;;;;5067464;28;20219;-37
2022/04/13 09:08:56;;;;;;;9.73;6.05;;;18.60;99.90;;;;;;5048018;28;20201;-38
2022/04/13 09:11:24;;;;;;;9.73;5.90;;;18.60;99.90;;;;;;5047950;28;20212;-38
2022/04/13 09:13:56;;;;;;;12.52;6.38;;;18.60;99.90;;;;;;5048121;28;20698;-37
2022/04/13 09:16:29;;;;;;;11.85;6.72;;;18.60;99.90;;;;;;5046564;28;20216;-38
2022/04/13 09:18:59;;;;;;;12.18;6.45;;;18.60;99.90;;;;;;5067535;28;20298;-38
2022/04/13 09:21:35;;;;;;;10.50;6.93;;;18.70;99.90;;;;;;5050617;28;20737;-38
2022/04/13 09:24:05;;;;;;;9.90;6.53;;;18.70;99.90;;;;;;5064555;28;20273;-38
2022/04/13 09:26:32;;;;;;;13.10;7.38;;;18.60;99.90;;;;;;5066718;28;20200;-38
2022/04/13 09:29:00;;;;;;;19.33;8.43;;;18.70;99.90;;;;;;5055501;28;20717;-38
2022/04/13 09:31:27;;;;;;;12.75;7.57;;;18.70;99.90;;;;;;5049176;28;20246;-38
2022/04/13 09:33:55;;;;;;;12.48;6.70;;;18.60;99.90;;;;;;5065843;28;20237;-38
2022/04/13 09:36:24;;;;;;;9.80;6.43;;;18.70;99.90;;;;;;5065665;28;20549;-38
2022/04/13 09:38:57;;;;;;;15.30;8.32;;;18.60;99.90;;;;;;5063352;28;20203;-37
2022/04/13 09:41:38;;;;;;;11.38;7.20;;;18.60;99.90;;;;;;5066256;28;20262;-38
2022/04/13 09:44:15;;;;;;;9.32;6.25;;;18.60;99.90;;;;;;5067720;28;20625;-38
2022/04/13 09:46:43;;;;;;;10.30;7.13;;;18.60;99.90;;;;;;5062831;28;20192;-38
2022/04/13 09:49:14;;;;;;;11.98;6.90;;;18.70;99.90;;;;;;5060361;28;20207;-38
2022/04/13 09:51:49;;;;;;;11.55;6.63;;;18.70;99.90;;;;;;5056802;28;20302;-37
2022/04/13 09:54:28;;;;;;;11.98;7.13;;;18.70;99.90;;;;;;5059638;28;20231;-38
2022/04/13 09:56:58;;;;;;;10.55;6.82;;;18.70;99.90;;;;;;5062112;28;20207;-37
2022/04/13 09:59:30;;;;;;;9.65;6.47;;;18.80;99.90;;;;;;5058714;28;20262;-37
2022/04/13 10:01:59;;;;;;;12.73;7.03;;;18.80;99.90;;;;;;5063382;28;20203;-38
2022/04/13 10:04:31;;;;;;;11.00;6.50;;;18.80;99.90;;;;;;5059470;28;20236;-38
2022/04/13 10:07:15;;;;;;;12.20;7.72;;;18.90;99.90;;;;;;5065581;28;20815;-38
2022/04/13 10:09:47;;;;;;;11.85;7.10;;;18.90;99.90;;;;;;5051830;28;20203;-38
2022/04/13 10:12:14;;;;;;;12.15;7.47;;;18.80;99.90;;;;;;5059731;28;20223;-38
2022/04/13 10:14:42;;;;;;;10.73;7.57;;;18.80;99.90;;;;;;5052706;28;20666;-37
2022/04/13 10:17:13;;;;;;;12.00;7.32;;;18.80;99.90;;;;;;5051707;28;20198;-38
2022/04/13 10:19:40;;;;;;;13.52;7.15;;;18.80;99.90;;;;;;5050287;28;20697;-37
2022/04/13 10:22:10;;;;;;;10.05;5.93;;;18.80;99.90;;;;;;5058458;28;20215;-38
2022/04/13 10:24:40;;;;;;;10.98;7.05;;;18.70;99.90;;;;;;5063912;28;20226;-38
2022/04/13 10:27:11;;;;;;;12.25;6.55;;;18.70;99.90;;;;;;5063947;28;20203;-38
2022/04/13 10:29:41;;;;;;;13.60;7.00;;;18.70;99.90;;;;;;5052779;28;20246;-38
2022/04/13 10:32:11;;;;;;;11.35;7.15;;;18.70;99.90;;;;;;5054538;28;20325;-37
2022/04/13 10:34:42;;;;;;;9.57;6.50;;;18.70;99.90;;;;;;5064811;28;20241;-38
2022/04/13 10:37:12;;;;;;;12.63;7.10;;;18.70;99.90;;;;;;5056585;28;20661;-37
2022/04/13 10:39:45;;;;;;;11.55;6.95;;;18.70;99.90;;;;;;5062512;28;20202;-38
2022/04/13 10:42:17;;;;;;;12.65;7.35;;;18.70;99.90;;;;;;5057974;28;20200;-37
2022/04/13 10:44:53;;;;;;;12.23;7.10;;;18.70;99.90;;;;;;5060951;28;20204;-38
2022/04/13 10:47:53;;;;;;;10.85;7.45;;;18.70;99.90;;;;;;5060824;28;20214;-38
2022/04/13 10:50:32;;;;;;;10.05;6.53;;;18.70;99.90;;;;;;5060140;28;20224;-38
2022/04/13 10:53:09;;;;;;;10.85;7.20;;;18.70;99.90;;;;;;5061275;28;20838;-38
2022/04/13 10:55:40;;;;;;;10.30;7.00;;;18.70;99.90;;;;;;5062167;28;20231;-37
2022/04/13 10:58:20;;;;;;;12.75;7.60;;;18.70;99.90;;;;;;5060991;28;20273;-38
2022/04/13 11:01:01;;;;;;;12.10;7.45;;;18.70;99.90;;;;;;5062308;28;20680;-37
2022/04/13 11:03:34;;;;;;;13.00;7.70;;;18.70;99.90;;;;;;5065528;28;20215;-38
2022/04/13 11:06:04;;;;;;;11.48;7.10;;;18.70;99.90;;;;;;5057510;28;20268;-38
2022/04/13 11:08:54;;;;;;;12.40;8.20;;;18.70;99.90;;;;;;5048903;28;20211;-38
2022/04/13 11:11:28;;;;;;;9.93;8.32;;;18.70;99.90;;;;;;5058692;28;20547;-38
2022/04/13 11:14:00;;;;;;;15.07;8.35;;;18.70;99.90;;;;;;5068750;28;20222;-38
2022/04/13 11:16:32;;;;;;;12.40;8.30;;;18.70;99.90;;;;;;5067069;28;20225;-38
2022/04/13 11:19:06;;;;;;;15.57;8.70;;;18.80;99.90;;;;;;5060900;28;20780;-38
2022/04/13 11:21:35;;;;;;;13.57;8.00;;;18.80;99.90;;;;;;5056585;28;20207;-40
2022/04/13 11:24:03;;;;;;;13.40;8.23;;;18.80;99.90;;;;;;5063025;28;20207;-39
2022/04/13 11:26:41;;;;;;;12.57;8.05;;;18.80;99.90;;;;;;5061865;28;20219;-38
2022/04/13 11:29:17;;;;;;;13.18;8.27;;;18.90;99.90;;;;;;5060951;28;20308;-38
2022/04/13 11:32:00;;;;;;;11.10;8.05;;;18.90;99.90;;;;;;5061794;28;20284;-38
2022/04/13 11:34:29;;;;;;;11.63;8.10;;;18.90;99.90;;;;;;5053999;28;20320;-37
2022/04/13 11:37:03;;;;;;;11.13;7.88;;;18.90;99.90;;;;;;5066520;28;20203;-37
2022/04/13 11:39:42;;;;;;;16.38;8.52;;;18.90;99.90;;;;;;5064469;28;20924;-36
2022/04/13 11:42:34;;;;;;;12.40;8.90;;;19.00;99.90;;;;;;5053943;28;20228;-37
2022/04/13 11:45:15;;;;;;;12.05;7.78;;;19.00;99.90;;;;;;5061383;28;20242;-37
2022/04/13 11:47:49;;;;;;;12.48;8.32;;;19.00;99.90;;;;;;5063291;28;20834;-37
2022/04/13 11:50:23;;;;;;;11.75;8.55;;;19.00;99.90;;;;;;5062678;28;20211;-36
2022/04/13 11:53:01;;;;;;;12.10;8.35;;;19.10;99.90;;;;;;5058350;28;20227;-36
2022/04/13 11:55:42;;;;;;;12.80;8.25;;;19.10;99.90;;;;;;5063850;28;20732;-37
2022/04/13 11:58:13;;;;;;;11.13;8.43;;;19.10;99.90;;;;;;5065423;28;20195;-37
2022/04/13 12:00:43;;;;;;;12.57;8.57;;;19.10;99.90;;;;;;5066984;28;20583;-37
2022/04/13 12:03:35;;;;;;;12.13;7.15;;;19.10;99.90;;;;;;5067563;28;20230;-37
2022/04/13 12:06:19;;;;;;;13.73;6.78;;;19.20;99.90;;;;;;5068476;28;20210;-36
2022/04/13 12:09:01;;;;;;;12.23;6.45;;;19.10;99.90;;;;;;5061569;28;20747;-37
2022/04/13 12:11:46;;;;;;;10.68;6.60;;;19.20;99.90;;;;;;5066124;28;20633;-38
2022/04/13 12:14:30;;;;;;;9.85;5.90;;;19.20;99.90;;;;;;5064593;28;20314;-38
2022/04/13 12:17:02;;;;;;;10.18;6.78;;;19.20;99.90;;;;;;5073131;28;20682;-36
2022/04/13 12:19:42;;;;;;;9.77;6.28;;;19.20;99.90;;;;;;5061536;28;20734;-38
2022/04/13 12:22:19;;;;;;;8.55;6.22;;;19.20;99.90;;;;;;5048025;28;20614;-37
2022/04/13 12:25:05;;;;;;;8.30;6.22;;;19.30;99.90;;;;;;5060678;28;20232;-37
2022/04/13 12:27:33;;;;;;;9.20;5.82;;;19.20;99.90;;;;;;5062116;28;20369;-36
2022/04/13 12:30:16;;;;;;;8.32;5.82;;;19.30;99.90;;;;;;5067492;28;20246;-37
2022/04/13 12:32:44;;;;;;;9.27;6.78;;;19.20;99.90;;;;;;5050588;28;20214;-37
2022/04/13 12:35:14;;;;;;;10.20;6.97;;;19.20;99.90;;;;;;5066799;28;20718;-37
2022/04/13 12:37:56;;;;;;;10.30;6.97;;;19.20;99.90;;;;;;5066097;28;20231;-37
2022/04/13 12:40:26;;;;;;;11.10;6.20;;;19.20;99.90;;;;;;5066114;28;20708;-37
2022/04/13 12:42:53;;;;;;;7.15;5.40;;;19.20;99.90;;;;;;5050087;28;20218;-37
2022/04/13 12:45:30;;;;;;;9.90;5.97;;;19.20;99.90;;;;;;5065764;28;20214;-37
2022/04/13 12:48:11;;;;;;;7.90;5.45;;;19.20;99.90;;;;;;5066320;28;20976;-37
2022/04/13 12:50:59;;;;;;;8.98;5.50;;;19.20;99.90;;;;;;5047332;28;20207;-37
2022/04/13 12:53:28;;;;;;;7.85;4.72;;;19.20;99.90;;;;;;5046111;28;20240;-37
2022/04/13 12:55:58;;;;;;;8.60;5.40;;;19.20;99.90;;;;;;5047907;28;20239;-37
2022/04/13 12:58:25;;;;;;;9.25;5.47;;;19.20;99.90;;;;;;5061438;28;20204;-37
2022/04/13 13:00:56;;;;;;;8.20;4.82;;;19.20;99.90;;;;;;5066781;28;20527;-37